Aviation Digital Data Service (ADDS)

Output produced by METARs form (0938 UTC 25 June 2018)
found at http://www.aviationweather.gov/adds/metars/
 
KBTP 250924Z AUTO 02005KT 10SM SCT012 16/14 A3010 RMK AO2
KBTP 250856Z AUTO 02005KT 10SM BKN012 16/15 A3009 RMK AO2 SLP189 T01610150 53016
KBTP 250756Z AUTO 01003KT 10SM BKN014 17/15 A3008 RMK AO2 SLP183 T01670150
KBTP 250733Z AUTO 01005KT 10SM BKN012 17/16 A3007 RMK AO2
KBTP 250656Z AUTO 36004KT 10SM FEW017 17/16 A3005 RMK AO2 SLP175 T01670156
KBTP 250646Z AUTO 36005KT 10SM FEW017 17/16 A3005 RMK AO2
KBTP 250556Z AUTO 34003KT 10SM SCT012 OVC020 18/16 A3004 RMK AO2 SLP171 60003 T01780161 10206 20172 51008
KBTP 250509Z AUTO 00000KT 10SM OVC013 18/17 A3004 RMK AO2
KBTP 250456Z AUTO 00000KT 10SM OVC015 18/17 A3003 RMK AO2 SLP168 T01780167 402560172
KBTP 250443Z AUTO VRB03KT 10SM BKN016 BKN055 18/17 A3003 RMK AO2
KBTP 250422Z AUTO 28003KT 10SM FEW028 BKN055 18/17 A3002 RMK AO2 TSNO
KBTP 250415Z AUTO 29003KT 10SM BKN028 OVC055 18/17 A3002 RMK AO2
KBTP 250406Z AUTO 00000KT 10SM SCT026 BKN032 OVC060 18/17 A3002 RMK AO2
KBTP 250356Z AUTO 27003KT 10SM BKN026 BKN050 18/17 A3002 RMK AO2 SLP163 T01780167
KBTP 250256Z AUTO 00000KT 10SM FEW024 18/17 A3001 RMK AO2 SLP162 60003 T01830167 51021
KBTP 250156Z AUTO 27003KT 10SM OVC036 19/17 A3000 RMK AO2 SLP158 T01940172
KBTP 250056Z AUTO VRB03KT 10SM BKN030 BKN037 20/19 A2996 RMK AO2 SLP146 P0003 T02000189
KBTP 242356Z AUTO 00000KT 10SM CLR 21/19 A2995 RMK AO2 SLP140 P0003 60006 T02060194 10256 20194 53007
KBTP 242256Z AUTO 00000KT 10SM FEW026 SCT039 BKN110 20/18 A2994 RMK AO2 RAB14E55 SLP138 P0003 T02000183
KBTP 242156Z AUTO 26005KT 10SM BKN048 BKN075 BKN095 24/17 A2992 RMK AO2 SLP130 T02390167
KBTP 242056Z AUTO 27011G18KT 10SM FEW046 SCT055 25/16 A2993 RMK AO2 SLP132 T02500161 53012
KBTP 241956Z AUTO 26014G21KT 10SM BKN050 25/15 A2991 RMK AO2 SLP126 T02500150
KBTP 241856Z AUTO 25013G20KT 10SM FEW035 BKN042 25/17 A2989 RMK AO2 SLP120 T02500167
KBTP 241756Z AUTO 27011KT 10SM FEW035 BKN095 25/18 A2989 RMK AO2 SLP119 T02500183 10256 20194 58000
KBTP 241656Z AUTO 26010G18KT 9SM SCT035 25/18 A2989 RMK AO2 SLP120 T02500178
KBTP 241556Z AUTO 27010G16KT 10SM FEW029 SCT035 BKN055 24/19 A2990 RMK AO2 SLP123 T02440189
KBTP 241456Z AUTO 24009KT 10SM SCT024 BKN032 OVC044 22/18 A2989 RMK AO2 SLP120 T02220183 53002
KBTP 241434Z AUTO 24010KT 10SM FEW022 SCT031 BKN042 23/18 A2988 RMK AO2
KBTP 241416Z AUTO 24007KT 10SM SCT014 BKN022 BKN030 23/19 A2989 RMK AO2
KBTP 241356Z AUTO 24009KT 10SM BKN013 BKN019 OVC040 22/19 A2988 RMK AO2 SLP118 T02170189
KBTP 241344Z AUTO 24007KT 10SM SCT011 BKN015 OVC080 22/19 A2989 RMK AO2
KBTP 241256Z AUTO 21006KT 10SM FEW006 BKN080 21/19 A2988 RMK AO2 SLP117 T02110194 TSNO
KBTP 241210Z AUTO 17004KT 7SM FEW004 BKN085 19/19 A2988 RMK AO2
KBTP 241156Z AUTO 20003KT 7SM FEW030 OVC080 19/19 A2989 RMK AO2 RAB16E43 SLP119 P0001 60002 7//// T01940189 10194 20183 51011
KBTP 241134Z AUTO VRB03KT 4SM -RA BR FEW007 SCT028 OVC040 19/18 A2988 RMK AO2 RAB16 P0001
KBTP 241116Z AUTO 22003KT 5SM -RA BR FEW007 BKN028 OVC070 19/18 A2988 RMK AO2 RAB16 P0000
KBTP 241056Z AUTO 00000KT 5SM BR SCT028 BKN070 19/18 A2988 RMK AO2 SLP115 T01890183
KBTP 240956Z AUTO 22004KT 4SM BR FEW037 OVC070 18/18 A2987 RMK AO2 SLP111 T01830183